createdAt,value
2023-04-11T00:01:26.452Z,10.07
2023-04-11T00:03:53.287Z,10.00
2023-04-11T00:06:20.454Z,9.97
2023-04-11T00:08:47.929Z,10.03
2023-04-11T00:11:14.982Z,10.00
2023-04-11T00:13:42.680Z,10.01
2023-04-11T00:16:10.111Z,10.02
2023-04-11T00:18:39.442Z,10.06
2023-04-11T00:21:08.191Z,10.15
2023-04-11T00:23:34.884Z,10.21
2023-04-11T00:26:01.885Z,10.23
2023-04-11T00:28:28.803Z,10.17
2023-04-11T00:30:55.605Z,10.15
2023-04-11T00:33:22.703Z,10.13
2023-04-11T00:35:49.321Z,10.13
2023-04-11T00:38:16.670Z,10.11
2023-04-11T00:40:43.885Z,10.12
2023-04-11T00:43:10.614Z,10.09
2023-04-11T00:45:39.049Z,10.26
2023-04-11T00:48:06.567Z,10.29
2023-04-11T00:50:33.280Z,10.31
2023-04-11T00:53:00.186Z,10.35
2023-04-11T00:55:27.418Z,10.47
2023-04-11T00:57:55.054Z,10.51
2023-04-11T01:00:22.520Z,10.63
2023-04-11T01:02:49.938Z,10.67
2023-04-11T01:05:17.269Z,10.65
2023-04-11T01:07:47.070Z,10.65
2023-04-11T01:10:15.086Z,10.66
2023-04-11T01:12:42.523Z,10.57
2023-04-11T01:15:10.958Z,10.52
2023-04-11T01:17:37.929Z,10.59
2023-04-11T01:20:07.957Z,10.60
2023-04-11T01:22:37.228Z,10.66
2023-04-11T01:25:04.956Z,10.67
2023-04-11T01:27:34.158Z,10.74
2023-04-11T01:30:01.668Z,10.75
2023-04-11T01:32:28.493Z,10.74
2023-04-11T01:34:57.579Z,10.72
2023-04-11T01:37:25.125Z,10.59
2023-04-11T01:39:51.915Z,10.51
2023-04-11T01:42:21.165Z,10.47
2023-04-11T01:44:50.007Z,10.44
2023-04-11T01:47:16.719Z,10.51
2023-04-11T01:49:43.701Z,10.46
2023-04-11T01:52:10.582Z,10.46
2023-04-11T01:54:37.455Z,10.48
2023-04-11T01:57:06.137Z,10.62
2023-04-11T01:59:32.951Z,10.65
2023-04-11T02:02:00.535Z,10.60
2023-04-11T02:04:27.310Z,10.65
2023-04-11T02:06:54.147Z,10.75
2023-04-11T02:09:21.198Z,10.75
2023-04-11T02:11:47.798Z,10.85
2023-04-11T02:14:16.384Z,10.94
2023-04-11T02:16:55.060Z,10.91
2023-04-11T02:19:23.576Z,10.95
2023-04-11T02:21:52.223Z,10.99
2023-04-11T02:24:19.089Z,11.16
2023-04-11T02:26:46.110Z,11.17
2023-04-11T02:29:12.956Z,11.08
2023-04-11T02:31:39.626Z,11.05
2023-04-11T02:34:06.443Z,11.15
2023-04-11T02:36:34.747Z,11.24
2023-04-11T02:39:01.347Z,11.26
2023-04-11T02:41:28.200Z,11.22
2023-04-11T02:43:54.748Z,11.12
2023-04-11T02:46:22.458Z,11.04
2023-04-11T02:48:49.145Z,11.07
2023-04-11T02:51:15.783Z,11.10
2023-04-11T02:53:42.681Z,11.01
2023-04-11T02:56:19.199Z,10.98
2023-04-11T02:58:48.902Z,11.08
2023-04-11T03:01:21.676Z,11.00
2023-04-11T03:03:48.636Z,10.97
2023-04-11T03:06:16.185Z,11.02
2023-04-11T03:08:43.962Z,11.01
2023-04-11T03:11:10.644Z,11.01
2023-04-11T03:13:39.268Z,11.01
2023-04-11T03:16:06.925Z,11.11
2023-04-11T03:18:33.645Z,11.23
2023-04-11T03:21:04.856Z,11.35
2023-04-11T03:23:32.141Z,11.36
2023-04-11T03:26:00.265Z,11.39
2023-04-11T03:28:27.688Z,11.28
2023-04-11T03:30:55.155Z,11.40
2023-04-11T03:33:23.595Z,11.36
2023-04-11T03:35:50.261Z,11.34
2023-04-11T03:38:16.965Z,11.44
2023-04-11T03:40:43.649Z,11.46
2023-04-11T03:43:15.771Z,11.48
2023-04-11T03:45:42.700Z,11.35
2023-04-11T03:48:20.037Z,11.23
2023-04-11T03:50:55.960Z,11.25
2023-04-11T03:53:28.421Z,11.20
2023-04-11T03:56:01.502Z,11.15
2023-04-11T03:58:34.175Z,11.14
2023-04-11T04:01:02.565Z,11.15
2023-04-11T04:03:29.974Z,11.15
2023-04-11T04:05:58.121Z,11.23
2023-04-11T04:08:24.751Z,11.27
2023-04-11T04:10:51.964Z,11.24
2023-04-11T04:13:19.305Z,11.32
2023-04-11T04:16:03.555Z,11.32
2023-04-11T04:18:32.358Z,11.21
2023-04-11T04:21:00.482Z,11.10
2023-04-11T04:23:27.273Z,11.04
2023-04-11T04:26:17.242Z,11.00
2023-04-11T04:28:53.948Z,11.04
2023-04-11T04:31:29.830Z,11.11
2023-04-11T04:34:08.583Z,11.04
2023-04-11T04:36:48.164Z,11.07
2023-04-11T04:39:21.230Z,11.57
2023-04-11T04:41:58.534Z,11.70
2023-04-11T04:44:31.046Z,11.85
2023-04-11T04:47:02.304Z,11.71
2023-04-11T04:49:29.259Z,11.96
2023-04-11T04:51:56.062Z,11.92
2023-04-11T04:54:23.816Z,11.93
2023-04-11T04:56:50.362Z,11.63
2023-04-11T04:59:18.742Z,11.64
2023-04-11T05:01:51.573Z,11.44
2023-04-11T05:04:24.115Z,11.32
2023-04-11T05:06:54.691Z,11.26
2023-04-11T05:09:21.854Z,11.08
2023-04-11T05:11:50.978Z,11.08
2023-04-11T05:14:19.184Z,10.98
2023-04-11T05:16:46.356Z,10.95
2023-04-11T05:19:13.390Z,10.95
2023-04-11T05:21:44.222Z,10.84
2023-04-11T05:24:12.110Z,10.82
2023-04-11T05:26:39.593Z,10.73
2023-04-11T05:29:06.953Z,10.52
2023-04-11T05:31:33.880Z,10.22
2023-04-11T05:34:02.242Z,10.07
2023-04-11T05:36:29.389Z,9.93
2023-04-11T05:38:56.410Z,9.90
2023-04-11T05:41:23.146Z,9.71
2023-04-11T05:43:49.719Z,9.73
2023-04-11T05:46:17.424Z,9.77
2023-04-11T05:48:44.145Z,9.77
2023-04-11T05:51:11.191Z,9.54
2023-04-11T05:53:37.843Z,9.53
2023-04-11T05:56:05.032Z,9.59
2023-04-11T05:58:31.774Z,9.60
2023-04-11T06:00:59.992Z,9.59
2023-04-11T06:03:27.340Z,9.76
2023-04-11T06:05:54.305Z,9.88
2023-04-11T06:08:21.599Z,9.79
2023-04-11T06:10:48.280Z,9.98
2023-04-11T06:13:15.280Z,10.23
2023-04-11T06:15:42.092Z,10.10
2023-04-11T06:18:09.030Z,10.07
2023-04-11T06:20:35.727Z,10.10
2023-04-11T06:23:02.371Z,10.26
2023-04-11T06:25:29.273Z,10.19
2023-04-11T06:27:56.032Z,10.19
2023-04-11T06:30:22.991Z,10.08
2023-04-11T06:32:49.882Z,9.95
2023-04-11T06:35:16.586Z,9.74
2023-04-11T06:37:43.279Z,9.43
2023-04-11T06:40:10.719Z,9.24
2023-04-11T06:42:37.433Z,9.12
2023-04-11T06:45:06.270Z,9.05
2023-04-11T06:47:33.083Z,8.98
2023-04-11T06:49:59.961Z,8.88
2023-04-11T06:52:28.287Z,8.65
2023-04-11T06:54:54.968Z,8.45
2023-04-11T06:57:21.928Z,8.45
2023-04-11T06:59:48.701Z,8.60
2023-04-11T07:02:15.558Z,8.44
2023-04-11T07:04:42.650Z,8.46
2023-04-11T07:07:09.521Z,8.29
2023-04-11T07:09:36.299Z,8.32
2023-04-11T07:12:02.944Z,8.38
2023-04-11T07:14:29.705Z,8.46
2023-04-11T07:16:56.386Z,8.55
2023-04-11T07:19:22.958Z,8.31
2023-04-11T07:21:49.815Z,8.21
2023-04-11T07:24:18.619Z,8.35
2023-04-11T07:26:46.729Z,8.47
2023-04-11T07:29:14.936Z,8.30
2023-04-11T07:31:42.029Z,8.44
2023-04-11T07:34:08.880Z,8.48
2023-04-11T07:36:36.144Z,8.38
2023-04-11T07:39:04.363Z,8.27
2023-04-11T07:41:31.349Z,8.35
2023-04-11T07:43:58.269Z,8.43
2023-04-11T07:46:25.296Z,8.56
2023-04-11T07:48:52.035Z,8.42
2023-04-11T07:51:18.995Z,8.18
2023-04-11T07:53:45.965Z,8.13
2023-04-11T07:56:13.618Z,8.08
2023-04-11T07:58:40.492Z,7.96
2023-04-11T08:01:19.026Z,7.78
2023-04-11T08:03:45.759Z,7.88
2023-04-11T08:06:12.390Z,7.87
2023-04-11T08:08:39.114Z,7.87
2023-04-11T08:11:06.151Z,7.84
2023-04-11T08:13:32.699Z,7.80
2023-04-11T08:15:59.459Z,7.57
2023-04-11T08:18:26.060Z,7.54
2023-04-11T08:20:52.976Z,7.56
2023-04-11T08:23:21.707Z,7.68
2023-04-11T08:25:51.274Z,7.88
2023-04-11T08:28:18.275Z,8.11
2023-04-11T08:30:45.133Z,8.23
2023-04-11T08:33:12.288Z,8.40
2023-04-11T08:35:42.965Z,8.45
2023-04-11T08:38:09.729Z,8.57
2023-04-11T08:40:36.312Z,8.41
2023-04-11T08:43:10.176Z,8.32
2023-04-11T08:45:36.752Z,8.23
2023-04-11T08:48:03.428Z,8.08
2023-04-11T08:50:30.170Z,8.08
2023-04-11T08:53:02.648Z,8.16
2023-04-11T08:55:30.003Z,7.89
2023-04-11T08:57:59.227Z,7.78
2023-04-11T09:00:29.273Z,8.31
2023-04-11T09:03:04.331Z,8.32
2023-04-11T09:05:36.138Z,8.32
2023-04-11T09:08:06.270Z,8.28
2023-04-11T09:10:33.271Z,8.25
2023-04-11T09:13:00.620Z,8.29
2023-04-11T09:15:30.226Z,8.43
2023-04-11T09:18:00.337Z,8.39
2023-04-11T09:20:30.391Z,8.12
2023-04-11T09:23:01.234Z,8.45
2023-04-11T09:25:28.016Z,8.33
2023-04-11T09:28:09.090Z,8.17
2023-04-11T09:30:36.407Z,8.24
2023-04-11T09:33:24.042Z,7.95
2023-04-11T09:35:55.288Z,8.01
2023-04-11T09:38:48.259Z,8.04
2023-04-11T09:41:15.168Z,7.91
2023-04-11T09:43:53.312Z,7.63
2023-04-11T09:46:21.240Z,7.59
2023-04-11T09:48:49.007Z,7.72
2023-04-11T09:51:28.161Z,7.75
2023-04-11T09:54:03.315Z,7.65
2023-04-11T09:56:31.026Z,7.71
2023-04-11T09:59:00.557Z,7.86
2023-04-11T10:01:27.299Z,7.93
2023-04-11T10:03:55.778Z,7.88
2023-04-11T10:06:35.009Z,8.18
2023-04-11T10:09:11.173Z,8.08
2023-04-11T10:11:43.063Z,8.10
2023-04-11T10:14:29.760Z,7.97
2023-04-11T10:17:24.380Z,7.87
2023-04-11T10:19:57.471Z,7.82
2023-04-11T10:22:46.618Z,7.88
2023-04-11T10:25:16.873Z,7.94
2023-04-11T10:28:00.946Z,7.93
2023-04-11T10:30:39.851Z,7.93
2023-04-11T10:33:15.773Z,7.78
2023-04-11T10:36:05.509Z,7.86
2023-04-11T10:38:41.808Z,8.15
2023-04-11T10:41:27.776Z,8.34
2023-04-11T10:44:24.647Z,8.31
2023-04-11T10:46:54.446Z,8.20
2023-04-11T10:49:47.438Z,8.37
2023-04-11T10:52:22.659Z,8.43
2023-04-11T10:54:51.500Z,8.32
2023-04-11T10:57:19.130Z,8.22
2023-04-11T10:59:51.577Z,8.40
2023-04-11T11:02:22.022Z,8.64
2023-04-11T11:04:49.435Z,8.78
2023-04-11T11:07:17.616Z,9.01
2023-04-11T11:09:51.051Z,8.84
2023-04-11T11:12:18.480Z,8.81
2023-04-11T11:14:46.710Z,8.76
2023-04-11T11:17:15.150Z,8.87
2023-04-11T11:19:46.626Z,8.74
2023-04-11T11:22:26.541Z,8.68
2023-04-11T11:24:53.653Z,8.63
2023-04-11T11:27:24.920Z,8.74
2023-04-11T11:29:52.892Z,8.74
2023-04-11T11:32:28.381Z,8.67
2023-04-11T11:34:55.573Z,8.60
2023-04-11T11:37:23.122Z,8.76
2023-04-11T11:39:51.096Z,9.17
2023-04-11T11:42:18.407Z,9.22
2023-04-11T11:44:45.118Z,9.11
2023-04-11T11:47:15.063Z,9.41
2023-04-11T11:49:49.602Z,9.96
2023-04-11T11:52:36.421Z,10.03
2023-04-11T11:55:08.101Z,10.04
2023-04-11T11:57:37.444Z,10.36
2023-04-11T12:00:10.227Z,10.38
2023-04-11T12:02:39.394Z,10.22
2023-04-11T12:05:07.503Z,10.53
2023-04-11T12:07:37.246Z,10.50
2023-04-11T12:10:09.409Z,10.30
2023-04-11T12:12:37.427Z,10.37
2023-04-11T12:15:11.963Z,10.17
2023-04-11T12:17:39.471Z,10.24
2023-04-11T12:20:15.830Z,10.32
2023-04-11T12:22:42.693Z,10.45
2023-04-11T12:25:12.061Z,10.00
2023-04-11T12:27:40.479Z,9.83
2023-04-11T12:30:08.318Z,10.14
2023-04-11T12:32:35.681Z,10.33
2023-04-11T12:35:04.384Z,10.15
2023-04-11T12:37:31.824Z,10.14
2023-04-11T12:39:58.508Z,9.55
2023-04-11T12:42:27.239Z,9.30
2023-04-11T12:44:54.839Z,9.03
2023-04-11T12:47:21.443Z,8.88
2023-04-11T12:49:48.378Z,8.83
2023-04-11T12:52:15.226Z,8.86
2023-04-11T12:54:41.850Z,8.90
2023-04-11T12:57:09.036Z,8.61
2023-04-11T12:59:35.605Z,8.63
2023-04-11T13:02:02.475Z,8.48
2023-04-11T13:04:29.313Z,8.36
2023-04-11T13:07:00.945Z,8.25
2023-04-11T13:09:31.656Z,8.36
2023-04-11T13:11:59.191Z,8.46
2023-04-11T13:14:26.124Z,8.45
2023-04-11T13:16:52.834Z,8.67
2023-04-11T13:19:21.299Z,8.65
2023-04-11T13:21:48.311Z,8.60
2023-04-11T13:24:15.211Z,8.84
2023-04-11T13:26:42.051Z,9.04
2023-04-11T13:29:08.855Z,8.85
2023-04-11T13:31:35.813Z,8.63
2023-04-11T13:34:02.606Z,8.45
2023-04-11T13:36:29.574Z,8.32
2023-04-11T13:38:57.584Z,8.32
2023-04-11T13:41:25.365Z,8.34
2023-04-11T13:43:52.665Z,8.21
2023-04-11T13:46:20.038Z,8.10
2023-04-11T13:48:46.816Z,8.19
2023-04-11T13:51:13.924Z,8.20
2023-04-11T13:53:40.762Z,8.08
2023-04-11T13:56:08.163Z,8.08
2023-04-11T13:58:35.298Z,8.05
2023-04-11T14:01:02.035Z,8.14
2023-04-11T14:03:33.218Z,8.33
2023-04-11T14:06:01.111Z,8.39
2023-04-11T14:08:28.713Z,8.53
2023-04-11T14:10:55.984Z,8.71
2023-04-11T14:13:22.809Z,8.83
2023-04-11T14:16:01.011Z,9.23
2023-04-11T14:18:34.573Z,9.46
2023-04-11T14:21:01.786Z,9.70
2023-04-11T14:23:29.352Z,9.67
2023-04-11T14:25:56.846Z,10.15
2023-04-11T14:28:26.508Z,10.23
2023-04-11T14:30:53.780Z,10.29
2023-04-11T14:33:20.851Z,10.43
2023-04-11T14:35:47.687Z,10.47
2023-04-11T14:38:15.786Z,10.42
2023-04-11T14:40:44.588Z,10.59
2023-04-11T14:43:11.666Z,10.51
2023-04-11T14:45:38.351Z,10.70
2023-04-11T14:48:05.592Z,10.63
2023-04-11T14:50:32.730Z,10.07
2023-04-11T14:52:59.721Z,10.18
2023-04-11T14:55:26.537Z,10.30
2023-04-11T14:57:55.321Z,10.47
2023-04-11T15:00:24.611Z,10.16
2023-04-11T15:02:54.277Z,10.28
2023-04-11T15:05:22.533Z,9.99
2023-04-11T15:07:51.889Z,9.71
2023-04-11T15:10:21.046Z,9.57
2023-04-11T15:12:47.810Z,9.16
2023-04-11T15:15:14.740Z,9.24
2023-04-11T15:17:50.202Z,9.54
2023-04-11T15:20:16.934Z,10.09
2023-04-11T15:22:46.684Z,10.23
2023-04-11T15:25:16.699Z,10.50
2023-04-11T15:27:43.894Z,10.39
2023-04-11T15:30:11.501Z,10.59
2023-04-11T15:32:42.805Z,10.31
2023-04-11T15:35:09.938Z,10.37
2023-04-11T15:37:36.478Z,10.89
2023-04-11T15:40:06.327Z,11.48
2023-04-11T15:42:35.551Z,11.44
2023-04-11T15:45:02.740Z,11.13
2023-04-11T15:47:30.564Z,10.65
2023-04-11T15:49:58.962Z,10.24
2023-04-11T15:52:25.658Z,10.79
2023-04-11T15:54:52.331Z,10.86
2023-04-11T15:57:19.753Z,10.58
2023-04-11T15:59:46.496Z,9.81
2023-04-11T16:02:15.185Z,9.82
2023-04-11T16:04:44.696Z,9.65
2023-04-11T16:07:13.920Z,9.56
2023-04-11T16:09:40.753Z,9.54
2023-04-11T16:12:07.797Z,9.12
2023-04-11T16:14:34.787Z,9.10
2023-04-11T16:17:01.499Z,8.96
2023-04-11T16:19:28.174Z,9.15
2023-04-11T16:21:54.710Z,9.13
2023-04-11T16:24:21.540Z,9.22
2023-04-11T16:26:48.466Z,9.21
2023-04-11T16:29:15.252Z,9.17
2023-04-11T16:31:42.148Z,9.10
2023-04-11T16:34:08.762Z,9.10
2023-04-11T16:36:35.693Z,9.16
2023-04-11T16:39:04.560Z,9.47
2023-04-11T16:41:36.344Z,9.32
2023-04-11T16:44:11.459Z,9.26
2023-04-11T16:46:41.778Z,8.98
2023-04-11T16:49:09.586Z,8.90
2023-04-11T16:51:37.051Z,9.10
2023-04-11T16:54:09.389Z,9.21
2023-04-11T16:56:37.373Z,8.86
2023-04-11T16:59:05.167Z,8.94
2023-04-11T17:01:31.996Z,8.90
2023-04-11T17:03:59.237Z,8.68
2023-04-11T17:06:27.122Z,8.73
2023-04-11T17:08:54.319Z,8.84
2023-04-11T17:11:21.056Z,9.21
2023-04-11T17:13:49.583Z,9.20
2023-04-11T17:16:19.625Z,9.03
2023-04-11T17:18:46.338Z,8.76
2023-04-11T17:21:12.979Z,8.66
2023-04-11T17:23:43.287Z,8.51
2023-04-11T17:26:13.214Z,8.35
2023-04-11T17:28:40.883Z,8.19
2023-04-11T17:31:14.985Z,8.18
2023-04-11T17:33:42.516Z,8.25
2023-04-11T17:36:11.150Z,8.09
2023-04-11T17:38:39.753Z,8.03
2023-04-11T17:41:14.569Z,7.88
2023-04-11T17:43:42.816Z,7.79
2023-04-11T17:46:09.787Z,7.68
2023-04-11T17:48:36.653Z,7.55
2023-04-11T17:51:04.400Z,7.70
2023-04-11T17:53:31.628Z,7.50
2023-04-11T17:55:58.402Z,7.36
2023-04-11T17:58:25.425Z,7.33
2023-04-11T18:00:56.129Z,7.32
2023-04-11T18:03:25.796Z,7.15
2023-04-11T18:05:54.069Z,7.07
2023-04-11T18:08:28.722Z,7.05
2023-04-11T18:11:00.110Z,7.02
2023-04-11T18:13:27.501Z,7.12
2023-04-11T18:15:54.365Z,7.11
2023-04-11T18:18:21.265Z,6.98
2023-04-11T18:20:48.347Z,6.86
2023-04-11T18:23:15.497Z,6.80
2023-04-11T18:25:42.231Z,6.73
2023-04-11T18:28:09.027Z,6.61
2023-04-11T18:30:35.732Z,6.62
2023-04-11T18:33:02.510Z,6.58
2023-04-11T18:35:29.183Z,6.72
2023-04-11T18:37:55.951Z,6.56
2023-04-11T18:40:22.863Z,6.47
2023-04-11T18:42:52.999Z,6.52
2023-04-11T18:45:21.809Z,6.48
2023-04-11T18:47:49.499Z,6.52
2023-04-11T18:50:17.238Z,6.55
2023-04-11T18:52:45.612Z,6.49
2023-04-11T18:55:12.733Z,6.42
2023-04-11T18:57:39.849Z,6.40
2023-04-11T19:00:19.324Z,6.30
2023-04-11T19:02:47.703Z,6.20
2023-04-11T19:05:14.905Z,6.33
2023-04-11T19:07:43.158Z,6.35
2023-04-11T19:10:11.585Z,6.36
2023-04-11T19:12:39.074Z,6.29
2023-04-11T19:15:08.246Z,6.32
2023-04-11T19:17:38.974Z,6.23
2023-04-11T19:20:13.222Z,6.07
2023-04-11T19:22:43.520Z,5.99
2023-04-11T19:25:11.593Z,5.94
2023-04-11T19:27:41.422Z,5.85
2023-04-11T19:30:10.267Z,5.82
2023-04-11T19:32:40.369Z,5.78
2023-04-11T19:35:10.154Z,5.76
2023-04-11T19:37:37.625Z,5.72
2023-04-11T19:40:08.345Z,5.70
2023-04-11T19:42:37.175Z,5.74
2023-04-11T19:45:04.614Z,5.67
2023-04-11T19:47:31.822Z,5.58
2023-04-11T19:50:00.970Z,5.54
2023-04-11T19:52:28.684Z,5.56
2023-04-11T19:54:56.630Z,5.52
2023-04-11T19:57:24.717Z,5.47
2023-04-11T19:59:51.531Z,5.34
2023-04-11T20:02:18.473Z,5.44
2023-04-11T20:04:48.156Z,5.33
2023-04-11T20:07:15.805Z,5.31
2023-04-11T20:09:42.341Z,5.42
2023-04-11T20:12:09.431Z,5.31
2023-04-11T20:14:37.961Z,5.18
2023-04-11T20:17:05.840Z,5.18
2023-04-11T20:19:33.331Z,5.16
2023-04-11T20:22:01.185Z,5.12
2023-04-11T20:24:27.926Z,5.11
2023-04-11T20:26:57.276Z,5.03
2023-04-11T20:31:57.340Z,4.99
2023-04-11T20:34:23.998Z,4.97
2023-04-11T20:36:50.817Z,4.87
2023-04-11T20:39:17.336Z,4.77
2023-04-11T20:41:44.145Z,4.72
2023-04-11T20:44:10.808Z,4.71
2023-04-11T20:46:40.000Z,4.63
2023-04-11T20:49:07.024Z,4.58
2023-04-11T20:51:34.752Z,4.44
2023-04-11T20:54:01.818Z,4.33
2023-04-11T20:56:35.018Z,4.26
2023-04-11T20:59:02.527Z,4.16
2023-04-11T21:01:33.031Z,4.11
2023-04-11T21:04:04.029Z,4.07
2023-04-11T21:06:31.730Z,4.03
2023-04-11T21:09:00.051Z,4.01
2023-04-11T21:11:27.139Z,3.99
2023-04-11T21:13:54.677Z,3.93
2023-04-11T21:16:21.914Z,3.87
2023-04-11T21:18:49.287Z,3.80
2023-04-11T21:21:15.851Z,3.68
2023-04-11T21:23:43.549Z,3.60
2023-04-11T21:26:11.633Z,3.73
2023-04-11T21:28:38.800Z,3.82
2023-04-11T21:31:05.737Z,3.92
2023-04-11T21:33:32.542Z,4.06
2023-04-11T21:35:59.551Z,4.17
2023-04-11T21:38:29.245Z,4.22
2023-04-11T21:40:57.020Z,4.21
2023-04-11T21:43:24.406Z,4.19
2023-04-11T21:45:51.093Z,4.16
2023-04-11T21:48:17.680Z,4.16
2023-04-11T21:50:45.951Z,4.15
2023-04-11T21:53:13.982Z,4.04
2023-04-11T21:55:45.528Z,3.93
2023-04-11T21:58:25.819Z,3.89
2023-04-11T22:00:55.799Z,3.85
2023-04-11T22:03:23.110Z,3.75
2023-04-11T22:05:52.358Z,3.79
2023-04-11T22:08:20.378Z,3.77
2023-04-11T22:10:48.524Z,3.83
2023-04-11T22:13:19.376Z,3.87
2023-04-11T22:15:48.867Z,3.89
2023-04-11T22:18:15.580Z,3.95
2023-04-11T22:20:46.313Z,3.97
2023-04-11T22:23:13.957Z,4.10
2023-04-11T22:25:42.692Z,4.06
2023-04-11T22:28:20.343Z,3.99
2023-04-11T22:30:47.118Z,3.94
2023-04-11T22:33:13.975Z,3.96
2023-04-11T22:35:42.418Z,3.94
2023-04-11T22:38:09.983Z,3.94
2023-04-11T22:40:39.015Z,3.92
2023-04-11T22:43:06.177Z,3.93
2023-04-11T22:45:37.072Z,3.91
2023-04-11T22:48:05.995Z,3.93
2023-04-11T22:50:37.291Z,3.96
2023-04-11T22:53:04.715Z,3.96
2023-04-11T22:55:35.672Z,4.04
2023-04-11T22:58:03.440Z,4.00
2023-04-11T23:00:30.551Z,4.01
2023-04-11T23:02:59.651Z,3.98
2023-04-11T23:05:26.612Z,3.93
2023-04-11T23:07:53.293Z,3.86
2023-04-11T23:10:19.993Z,3.87
2023-04-11T23:12:47.569Z,3.92
2023-04-11T23:15:14.851Z,3.89
2023-04-11T23:17:41.760Z,3.94
2023-04-11T23:20:11.015Z,3.88
2023-04-11T23:22:37.567Z,3.91
2023-04-11T23:25:05.399Z,3.84
2023-04-11T23:27:32.639Z,3.82
2023-04-11T23:29:59.857Z,3.83
2023-04-11T23:32:27.161Z,3.88
2023-04-11T23:34:54.246Z,3.84
2023-04-11T23:37:20.943Z,3.83
2023-04-11T23:39:47.623Z,3.83
2023-04-11T23:42:14.398Z,3.82
2023-04-11T23:44:41.295Z,3.79
2023-04-11T23:47:07.932Z,3.80
2023-04-11T23:49:34.714Z,3.83
2023-04-11T23:52:01.421Z,3.88
2023-04-11T23:54:30.444Z,3.93
2023-04-11T23:56:58.392Z,3.85
2023-04-11T23:59:25.254Z,3.79
